sensor_id;sensor_type;location;lat;lon;timestamp;temperature;humidity
11532;DHT22;5822;51.000;5.874;2023-04-24T00:00:14;12.70;99.90
11532;DHT22;5822;51.000;5.874;2023-04-24T00:02:41;12.70;99.90
11532;DHT22;5822;51.000;5.874;2023-04-24T00:05:10;12.80;99.90
11532;DHT22;5822;51.000;5.874;2023-04-24T00:07:35;12.80;99.90
11532;DHT22;5822;51.000;5.874;2023-04-24T00:10:01;12.80;99.90
11532;DHT22;5822;51.000;5.874;2023-04-24T00:12:27;12.80;99.90
11532;DHT22;5822;51.000;5.874;2023-04-24T00:14:53;12.80;99.90
11532;DHT22;5822;51.000;5.874;2023-04-24T00:17:18;12.80;99.90
11532;DHT22;5822;51.000;5.874;2023-04-24T00:19:48;12.90;99.90
11532;DHT22;5822;51.000;5.874;2023-04-24T00:22:13;12.90;99.90
11532;DHT22;5822;51.000;5.874;2023-04-24T00:24:40;12.90;99.90
11532;DHT22;5822;51.000;5.874;2023-04-24T00:27:05;12.90;99.90
11532;DHT22;5822;51.000;5.874;2023-04-24T00:29:31;12.80;99.90
11532;DHT22;5822;51.000;5.874;2023-04-24T00:31:57;12.80;99.90
11532;DHT22;5822;51.000;5.874;2023-04-24T00:34:22;12.70;99.90
11532;DHT22;5822;51.000;5.874;2023-04-24T00:36:48;12.70;99.90
11532;DHT22;5822;51.000;5.874;2023-04-24T00:39:19;12.70;99.90
11532;DHT22;5822;51.000;5.874;2023-04-24T00:41:45;12.70;99.90
11532;DHT22;5822;51.000;5.874;2023-04-24T00:44:11;12.70;99.90
11532;DHT22;5822;51.000;5.874;2023-04-24T00:46:36;12.80;99.90
11532;DHT22;5822;51.000;5.874;2023-04-24T00:49:02;12.70;99.90
11532;DHT22;5822;51.000;5.874;2023-04-24T00:51:30;12.70;99.90
11532;DHT22;5822;51.000;5.874;2023-04-24T00:53:56;12.70;99.90
11532;DHT22;5822;51.000;5.874;2023-04-24T00:56:22;12.70;99.90
11532;DHT22;5822;51.000;5.874;2023-04-24T00:58:49;12.80;99.90
11532;DHT22;5822;51.000;5.874;2023-04-24T01:01:14;12.70;99.90
11532;DHT22;5822;51.000;5.874;2023-04-24T01:03:40;12.80;99.90
11532;DHT22;5822;51.000;5.874;2023-04-24T01:06:06;12.70;99.90
11532;DHT22;5822;51.000;5.874;2023-04-24T01:08:33;12.60;99.90
11532;DHT22;5822;51.000;5.874;2023-04-24T01:11:03;12.60;99.90
11532;DHT22;5822;51.000;5.874;2023-04-24T01:13:29;12.60;99.90
11532;DHT22;5822;51.000;5.874;2023-04-24T01:15:55;12.60;99.90
11532;DHT22;5822;51.000;5.874;2023-04-24T01:18:20;12.70;99.90
11532;DHT22;5822;51.000;5.874;2023-04-24T01:20:49;12.80;99.90
11532;DHT22;5822;51.000;5.874;2023-04-24T01:23:17;12.80;99.90
11532;DHT22;5822;51.000;5.874;2023-04-24T01:25:42;12.70;99.90
11532;DHT22;5822;51.000;5.874;2023-04-24T01:28:08;12.70;99.90
11532;DHT22;5822;51.000;5.874;2023-04-24T01:30:34;12.60;99.90
11532;DHT22;5822;51.000;5.874;2023-04-24T01:33:04;12.60;99.90
11532;DHT22;5822;51.000;5.874;2023-04-24T01:35:30;12.60;99.90
11532;DHT22;5822;51.000;5.874;2023-04-24T01:37:56;12.60;99.90
11532;DHT22;5822;51.000;5.874;2023-04-24T01:40:21;12.60;99.90
11532;DHT22;5822;51.000;5.874;2023-04-24T01:42:47;12.60;99.90
11532;DHT22;5822;51.000;5.874;2023-04-24T01:45:13;12.60;99.90
11532;DHT22;5822;51.000;5.874;2023-04-24T01:47:39;12.60;99.90
11532;DHT22;5822;51.000;5.874;2023-04-24T01:50:06;12.60;99.90
11532;DHT22;5822;51.000;5.874;2023-04-24T01:52:32;12.60;99.90
11532;DHT22;5822;51.000;5.874;2023-04-24T01:55:05;12.60;99.90
11532;DHT22;5822;51.000;5.874;2023-04-24T01:57:31;12.50;99.90
11532;DHT22;5822;51.000;5.874;2023-04-24T01:59:57;12.50;99.90
11532;DHT22;5822;51.000;5.874;2023-04-24T02:02:23;12.60;99.90
11532;DHT22;5822;51.000;5.874;2023-04-24T02:04:50;12.60;99.90
11532;DHT22;5822;51.000;5.874;2023-04-24T02:07:16;12.50;99.90
11532;DHT22;5822;51.000;5.874;2023-04-24T02:09:41;12.50;99.90
11532;DHT22;5822;51.000;5.874;2023-04-24T02:12:07;12.50;99.90
11532;DHT22;5822;51.000;5.874;2023-04-24T02:14:33;12.60;99.90
11532;DHT22;5822;51.000;5.874;2023-04-24T02:16:58;12.70;99.90
11532;DHT22;5822;51.000;5.874;2023-04-24T02:19:24;12.70;99.90
11532;DHT22;5822;51.000;5.874;2023-04-24T02:21:49;12.70;99.90
11532;DHT22;5822;51.000;5.874;2023-04-24T02:24:15;12.70;99.90
11532;DHT22;5822;51.000;5.874;2023-04-24T02:26:41;12.70;99.90
11532;DHT22;5822;51.000;5.874;2023-04-24T02:29:07;12.70;99.90
11532;DHT22;5822;51.000;5.874;2023-04-24T02:31:33;12.70;99.90
11532;DHT22;5822;51.000;5.874;2023-04-24T02:33:59;12.80;99.90
11532;DHT22;5822;51.000;5.874;2023-04-24T02:36:24;12.70;99.90
11532;DHT22;5822;51.000;5.874;2023-04-24T02:38:50;12.70;99.90
11532;DHT22;5822;51.000;5.874;2023-04-24T02:41:16;12.70;99.90
11532;DHT22;5822;51.000;5.874;2023-04-24T02:43:42;12.70;99.90
11532;DHT22;5822;51.000;5.874;2023-04-24T02:46:07;12.70;99.90
11532;DHT22;5822;51.000;5.874;2023-04-24T02:48:33;12.70;99.90
11532;DHT22;5822;51.000;5.874;2023-04-24T02:50:58;12.80;99.90
11532;DHT22;5822;51.000;5.874;2023-04-24T02:53:24;12.80;99.90
11532;DHT22;5822;51.000;5.874;2023-04-24T02:55:50;12.70;99.90
11532;DHT22;5822;51.000;5.874;2023-04-24T02:58:16;12.70;99.90
11532;DHT22;5822;51.000;5.874;2023-04-24T03:00:42;12.80;99.90
11532;DHT22;5822;51.000;5.874;2023-04-24T03:03:09;12.70;99.90
11532;DHT22;5822;51.000;5.874;2023-04-24T03:05:34;12.60;99.90
11532;DHT22;5822;51.000;5.874;2023-04-24T03:08:00;12.60;99.90
11532;DHT22;5822;51.000;5.874;2023-04-24T03:10:26;12.60;99.90
11532;DHT22;5822;51.000;5.874;2023-04-24T03:12:51;12.50;99.90
11532;DHT22;5822;51.000;5.874;2023-04-24T03:15:17;12.60;99.90
11532;DHT22;5822;51.000;5.874;2023-04-24T03:17:43;12.60;99.90
11532;DHT22;5822;51.000;5.874;2023-04-24T03:20:09;12.50;99.90
11532;DHT22;5822;51.000;5.874;2023-04-24T03:22:35;12.50;99.90
11532;DHT22;5822;51.000;5.874;2023-04-24T03:25:01;12.60;99.90
11532;DHT22;5822;51.000;5.874;2023-04-24T03:27:26;12.60;99.90
11532;DHT22;5822;51.000;5.874;2023-04-24T03:29:52;12.60;99.90
11532;DHT22;5822;51.000;5.874;2023-04-24T03:32:21;12.50;99.90
11532;DHT22;5822;51.000;5.874;2023-04-24T03:34:50;12.50;99.90
11532;DHT22;5822;51.000;5.874;2023-04-24T03:37:16;12.50;99.90
11532;DHT22;5822;51.000;5.874;2023-04-24T03:39:42;12.50;99.90
11532;DHT22;5822;51.000;5.874;2023-04-24T03:42:08;12.50;99.90
11532;DHT22;5822;51.000;5.874;2023-04-24T03:44:34;12.40;99.90
11532;DHT22;5822;51.000;5.874;2023-04-24T03:47:03;12.50;99.90
11532;DHT22;5822;51.000;5.874;2023-04-24T03:49:29;12.40;99.90
11532;DHT22;5822;51.000;5.874;2023-04-24T03:51:55;12.30;99.90
11532;DHT22;5822;51.000;5.874;2023-04-24T03:54:20;12.30;99.90
11532;DHT22;5822;51.000;5.874;2023-04-24T03:56:46;12.30;99.90
11532;DHT22;5822;51.000;5.874;2023-04-24T03:59:11;12.30;99.90
11532;DHT22;5822;51.000;5.874;2023-04-24T04:01:38;12.20;99.90
11532;DHT22;5822;51.000;5.874;2023-04-24T04:04:05;12.10;99.90
11532;DHT22;5822;51.000;5.874;2023-04-24T04:06:31;12.20;99.90
11532;DHT22;5822;51.000;5.874;2023-04-24T04:08:57;12.20;99.90
11532;DHT22;5822;51.000;5.874;2023-04-24T04:11:24;12.20;99.90
11532;DHT22;5822;51.000;5.874;2023-04-24T04:13:50;12.30;99.90
11532;DHT22;5822;51.000;5.874;2023-04-24T04:16:15;12.10;99.90
11532;DHT22;5822;51.000;5.874;2023-04-24T04:18:44;12.10;99.90
11532;DHT22;5822;51.000;5.874;2023-04-24T04:21:10;12.10;99.90
11532;DHT22;5822;51.000;5.874;2023-04-24T04:23:36;12.10;99.90
11532;DHT22;5822;51.000;5.874;2023-04-24T04:26:03;12.00;99.90
11532;DHT22;5822;51.000;5.874;2023-04-24T04:28:29;11.90;99.90
11532;DHT22;5822;51.000;5.874;2023-04-24T04:30:56;11.90;99.90
11532;DHT22;5822;51.000;5.874;2023-04-24T04:33:23;11.80;99.90
11532;DHT22;5822;51.000;5.874;2023-04-24T04:35:50;11.80;99.90
11532;DHT22;5822;51.000;5.874;2023-04-24T04:38:20;11.90;99.90
11532;DHT22;5822;51.000;5.874;2023-04-24T04:40:46;11.90;99.90
11532;DHT22;5822;51.000;5.874;2023-04-24T04:43:12;11.80;99.90
11532;DHT22;5822;51.000;5.874;2023-04-24T04:45:39;11.70;99.90
11532;DHT22;5822;51.000;5.874;2023-04-24T04:48:05;11.70;99.90
11532;DHT22;5822;51.000;5.874;2023-04-24T04:50:33;11.70;99.90
11532;DHT22;5822;51.000;5.874;2023-04-24T04:52:59;11.70;99.90
11532;DHT22;5822;51.000;5.874;2023-04-24T04:55:24;11.60;99.90
11532;DHT22;5822;51.000;5.874;2023-04-24T04:57:51;11.60;99.90
11532;DHT22;5822;51.000;5.874;2023-04-24T05:00:17;11.70;99.90
11532;DHT22;5822;51.000;5.874;2023-04-24T05:02:43;11.70;99.90
11532;DHT22;5822;51.000;5.874;2023-04-24T05:05:09;11.60;99.90
11532;DHT22;5822;51.000;5.874;2023-04-24T05:07:34;11.70;99.90
11532;DHT22;5822;51.000;5.874;2023-04-24T05:10:00;11.70;99.90
11532;DHT22;5822;51.000;5.874;2023-04-24T05:12:26;11.60;99.90
11532;DHT22;5822;51.000;5.874;2023-04-24T05:14:52;11.70;99.90
11532;DHT22;5822;51.000;5.874;2023-04-24T05:17:17;11.50;99.90
11532;DHT22;5822;51.000;5.874;2023-04-24T05:19:43;11.50;99.90
11532;DHT22;5822;51.000;5.874;2023-04-24T05:22:09;11.40;99.90
11532;DHT22;5822;51.000;5.874;2023-04-24T05:24:36;11.40;99.90
11532;DHT22;5822;51.000;5.874;2023-04-24T05:27:05;11.50;99.90
11532;DHT22;5822;51.000;5.874;2023-04-24T05:29:31;11.60;99.90
11532;DHT22;5822;51.000;5.874;2023-04-24T05:31:58;11.60;99.90
11532;DHT22;5822;51.000;5.874;2023-04-24T05:34:24;11.60;99.90
11532;DHT22;5822;51.000;5.874;2023-04-24T05:36:50;11.50;99.90
11532;DHT22;5822;51.000;5.874;2023-04-24T05:39:16;11.40;99.90
11532;DHT22;5822;51.000;5.874;2023-04-24T05:41:42;11.40;99.90
11532;DHT22;5822;51.000;5.874;2023-04-24T05:44:08;11.40;99.90
11532;DHT22;5822;51.000;5.874;2023-04-24T05:46:34;11.40;99.90
11532;DHT22;5822;51.000;5.874;2023-04-24T05:49:00;11.40;99.90
11532;DHT22;5822;51.000;5.874;2023-04-24T05:51:25;11.40;99.90
11532;DHT22;5822;51.000;5.874;2023-04-24T05:53:51;11.40;99.90
11532;DHT22;5822;51.000;5.874;2023-04-24T05:56:17;11.20;99.90
11532;DHT22;5822;51.000;5.874;2023-04-24T05:58:45;11.20;99.90
11532;DHT22;5822;51.000;5.874;2023-04-24T06:01:11;11.30;99.90
11532;DHT22;5822;51.000;5.874;2023-04-24T06:03:38;11.40;99.90
11532;DHT22;5822;51.000;5.874;2023-04-24T06:06:06;11.30;99.90
11532;DHT22;5822;51.000;5.874;2023-04-24T06:08:31;11.30;99.90
11532;DHT22;5822;51.000;5.874;2023-04-24T06:10:58;11.20;99.90
11532;DHT22;5822;51.000;5.874;2023-04-24T06:13:23;11.10;99.90
11532;DHT22;5822;51.000;5.874;2023-04-24T06:15:51;11.20;99.90
11532;DHT22;5822;51.000;5.874;2023-04-24T06:18:16;11.10;99.90
11532;DHT22;5822;51.000;5.874;2023-04-24T06:20:42;11.10;99.90
11532;DHT22;5822;51.000;5.874;2023-04-24T06:23:08;11.00;99.90
11532;DHT22;5822;51.000;5.874;2023-04-24T06:25:34;11.00;99.90
11532;DHT22;5822;51.000;5.874;2023-04-24T06:28:00;11.10;99.90
11532;DHT22;5822;51.000;5.874;2023-04-24T06:30:27;11.10;99.90
11532;DHT22;5822;51.000;5.874;2023-04-24T06:32:53;11.00;99.90
11532;DHT22;5822;51.000;5.874;2023-04-24T06:35:19;11.10;99.90
11532;DHT22;5822;51.000;5.874;2023-04-24T06:37:45;11.00;99.90
11532;DHT22;5822;51.000;5.874;2023-04-24T06:40:11;11.00;99.90
11532;DHT22;5822;51.000;5.874;2023-04-24T06:42:36;10.90;99.90
11532;DHT22;5822;51.000;5.874;2023-04-24T06:45:02;10.90;99.90
11532;DHT22;5822;51.000;5.874;2023-04-24T06:47:29;10.80;99.90
11532;DHT22;5822;51.000;5.874;2023-04-24T06:49:54;10.90;99.90
11532;DHT22;5822;51.000;5.874;2023-04-24T06:52:20;10.90;99.90
11532;DHT22;5822;51.000;5.874;2023-04-24T06:54:46;10.80;99.90
11532;DHT22;5822;51.000;5.874;2023-04-24T06:57:12;10.80;99.90
11532;DHT22;5822;51.000;5.874;2023-04-24T06:59:38;10.80;99.90
11532;DHT22;5822;51.000;5.874;2023-04-24T07:02:04;10.80;99.90
11532;DHT22;5822;51.000;5.874;2023-04-24T07:04:30;10.80;99.90
11532;DHT22;5822;51.000;5.874;2023-04-24T07:06:56;10.80;99.90
11532;DHT22;5822;51.000;5.874;2023-04-24T07:09:24;10.80;99.90
11532;DHT22;5822;51.000;5.874;2023-04-24T07:11:51;10.80;99.90
11532;DHT22;5822;51.000;5.874;2023-04-24T07:14:17;10.70;99.90
11532;DHT22;5822;51.000;5.874;2023-04-24T07:16:43;10.60;99.90
11532;DHT22;5822;51.000;5.874;2023-04-24T07:19:09;10.60;99.90
11532;DHT22;5822;51.000;5.874;2023-04-24T07:21:35;10.60;99.90
11532;DHT22;5822;51.000;5.874;2023-04-24T07:24:00;10.60;99.90
11532;DHT22;5822;51.000;5.874;2023-04-24T07:26:28;10.50;99.90
11532;DHT22;5822;51.000;5.874;2023-04-24T07:28:54;10.50;99.90
11532;DHT22;5822;51.000;5.874;2023-04-24T07:31:20;10.40;99.90
11532;DHT22;5822;51.000;5.874;2023-04-24T07:33:46;10.40;99.90
11532;DHT22;5822;51.000;5.874;2023-04-24T07:36:12;10.40;99.90
11532;DHT22;5822;51.000;5.874;2023-04-24T07:38:47;10.30;99.90
11532;DHT22;5822;51.000;5.874;2023-04-24T07:41:13;10.30;99.90
11532;DHT22;5822;51.000;5.874;2023-04-24T07:43:41;10.30;99.90
11532;DHT22;5822;51.000;5.874;2023-04-24T07:46:10;10.30;99.90
11532;DHT22;5822;51.000;5.874;2023-04-24T07:48:36;10.40;99.90
11532;DHT22;5822;51.000;5.874;2023-04-24T07:51:02;10.30;99.90
11532;DHT22;5822;51.000;5.874;2023-04-24T07:53:28;10.30;99.90
11532;DHT22;5822;51.000;5.874;2023-04-24T07:55:55;10.20;99.90
11532;DHT22;5822;51.000;5.874;2023-04-24T07:58:21;10.30;99.90
11532;DHT22;5822;51.000;5.874;2023-04-24T08:00:47;10.30;99.90
11532;DHT22;5822;51.000;5.874;2023-04-24T08:03:13;10.20;99.90
11532;DHT22;5822;51.000;5.874;2023-04-24T08:05:39;10.40;99.90
11532;DHT22;5822;51.000;5.874;2023-04-24T08:08:04;10.30;99.90
11532;DHT22;5822;51.000;5.874;2023-04-24T08:10:30;10.40;99.90
11532;DHT22;5822;51.000;5.874;2023-04-24T08:12:56;10.40;99.90
11532;DHT22;5822;51.000;5.874;2023-04-24T08:15:22;10.30;99.90
11532;DHT22;5822;51.000;5.874;2023-04-24T08:17:47;10.50;99.90
11532;DHT22;5822;51.000;5.874;2023-04-24T08:20:13;10.50;99.90
11532;DHT22;5822;51.000;5.874;2023-04-24T08:22:42;10.50;99.90
11532;DHT22;5822;51.000;5.874;2023-04-24T08:25:09;10.50;99.90
11532;DHT22;5822;51.000;5.874;2023-04-24T08:27:35;10.40;99.90
11532;DHT22;5822;51.000;5.874;2023-04-24T08:30:02;10.50;99.90
11532;DHT22;5822;51.000;5.874;2023-04-24T08:32:28;10.40;99.90
11532;DHT22;5822;51.000;5.874;2023-04-24T08:34:55;10.50;99.90
11532;DHT22;5822;51.000;5.874;2023-04-24T08:37:22;10.50;99.90
11532;DHT22;5822;51.000;5.874;2023-04-24T08:39:48;10.60;99.90
11532;DHT22;5822;51.000;5.874;2023-04-24T08:42:15;10.60;99.90
11532;DHT22;5822;51.000;5.874;2023-04-24T08:44:42;10.50;99.90
11532;DHT22;5822;51.000;5.874;2023-04-24T08:47:08;10.50;99.90
11532;DHT22;5822;51.000;5.874;2023-04-24T08:49:36;10.40;99.90
11532;DHT22;5822;51.000;5.874;2023-04-24T08:52:02;10.50;99.90
11532;DHT22;5822;51.000;5.874;2023-04-24T08:54:28;10.50;99.90
11532;DHT22;5822;51.000;5.874;2023-04-24T08:56:58;10.70;99.90
11532;DHT22;5822;51.000;5.874;2023-04-24T08:59:26;10.70;99.90
11532;DHT22;5822;51.000;5.874;2023-04-24T09:01:53;10.70;99.90
11532;DHT22;5822;51.000;5.874;2023-04-24T09:04:20;10.70;99.90
11532;DHT22;5822;51.000;5.874;2023-04-24T09:06:48;10.80;99.90
11532;DHT22;5822;51.000;5.874;2023-04-24T09:09:16;10.80;99.90
11532;DHT22;5822;51.000;5.874;2023-04-24T09:11:42;10.80;99.90
11532;DHT22;5822;51.000;5.874;2023-04-24T09:14:09;10.90;99.90
11532;DHT22;5822;51.000;5.874;2023-04-24T09:16:35;11.00;99.90
11532;DHT22;5822;51.000;5.874;2023-04-24T09:19:01;11.00;99.90
11532;DHT22;5822;51.000;5.874;2023-04-24T09:21:32;11.00;99.90
11532;DHT22;5822;51.000;5.874;2023-04-24T09:24:05;11.10;99.90
11532;DHT22;5822;51.000;5.874;2023-04-24T09:26:34;11.10;99.90
11532;DHT22;5822;51.000;5.874;2023-04-24T09:29:00;11.10;99.90
11532;DHT22;5822;51.000;5.874;2023-04-24T09:31:30;11.00;99.90
11532;DHT22;5822;51.000;5.874;2023-04-24T09:34:03;11.10;99.90
11532;DHT22;5822;51.000;5.874;2023-04-24T09:36:36;11.20;99.90
11532;DHT22;5822;51.000;5.874;2023-04-24T09:39:12;11.20;99.90
11532;DHT22;5822;51.000;5.874;2023-04-24T09:41:54;11.10;99.90
11532;DHT22;5822;51.000;5.874;2023-04-24T09:44:24;11.20;99.90
11532;DHT22;5822;51.000;5.874;2023-04-24T09:49:27;11.40;99.90
11532;DHT22;5822;51.000;5.874;2023-04-24T09:52:07;11.40;99.90
11532;DHT22;5822;51.000;5.874;2023-04-24T09:54:33;11.40;99.90
11532;DHT22;5822;51.000;5.874;2023-04-24T09:56:59;11.30;99.90
11532;DHT22;5822;51.000;5.874;2023-04-24T09:59:28;11.30;99.90
11532;DHT22;5822;51.000;5.874;2023-04-24T10:01:54;11.40;99.90
11532;DHT22;5822;51.000;5.874;2023-04-24T10:04:22;11.40;99.90
11532;DHT22;5822;51.000;5.874;2023-04-24T10:06:50;11.50;99.90
11532;DHT22;5822;51.000;5.874;2023-04-24T10:09:21;11.60;99.90
11532;DHT22;5822;51.000;5.874;2023-04-24T10:11:48;11.50;99.90
11532;DHT22;5822;51.000;5.874;2023-04-24T10:14:16;11.50;99.90
11532;DHT22;5822;51.000;5.874;2023-04-24T10:16:43;11.50;99.90
11532;DHT22;5822;51.000;5.874;2023-04-24T10:19:10;11.40;99.90
11532;DHT22;5822;51.000;5.874;2023-04-24T10:21:36;11.30;99.90
11532;DHT22;5822;51.000;5.874;2023-04-24T10:24:11;11.30;99.90
11532;DHT22;5822;51.000;5.874;2023-04-24T10:26:38;11.30;99.90
11532;DHT22;5822;51.000;5.874;2023-04-24T10:29:06;11.20;99.90
11532;DHT22;5822;51.000;5.874;2023-04-24T10:31:36;11.10;99.90
11532;DHT22;5822;51.000;5.874;2023-04-24T10:34:04;11.20;99.90
11532;DHT22;5822;51.000;5.874;2023-04-24T10:36:31;11.30;99.90
11532;DHT22;5822;51.000;5.874;2023-04-24T10:38:59;11.50;99.90
11532;DHT22;5822;51.000;5.874;2023-04-24T10:41:26;11.60;99.90
11532;DHT22;5822;51.000;5.874;2023-04-24T10:44:05;11.70;99.90
11532;DHT22;5822;51.000;5.874;2023-04-24T10:46:32;11.70;99.90
11532;DHT22;5822;51.000;5.874;2023-04-24T10:48:58;11.70;99.90
11532;DHT22;5822;51.000;5.874;2023-04-24T10:51:24;11.90;99.90
11532;DHT22;5822;51.000;5.874;2023-04-24T10:54:27;11.90;99.90
11532;DHT22;5822;51.000;5.874;2023-04-24T10:57:34;12.00;99.90
11532;DHT22;5822;51.000;5.874;2023-04-24T11:00:19;11.90;99.90
11532;DHT22;5822;51.000;5.874;2023-04-24T11:02:47;11.90;99.90
11532;DHT22;5822;51.000;5.874;2023-04-24T11:05:19;11.80;99.90
11532;DHT22;5822;51.000;5.874;2023-04-24T11:13:10;11.70;99.90
11532;DHT22;5822;51.000;5.874;2023-04-24T11:15:36;11.70;99.90
11532;DHT22;5822;51.000;5.874;2023-04-24T11:18:02;11.80;99.90
11532;DHT22;5822;51.000;5.874;2023-04-24T11:20:27;11.90;99.90
11532;DHT22;5822;51.000;5.874;2023-04-24T11:22:54;12.00;99.90
11532;DHT22;5822;51.000;5.874;2023-04-24T11:25:21;12.00;99.90
11532;DHT22;5822;51.000;5.874;2023-04-24T11:27:48;12.00;99.90
11532;DHT22;5822;51.000;5.874;2023-04-24T11:30:19;12.00;99.90
11532;DHT22;5822;51.000;5.874;2023-04-24T11:32:50;12.00;99.90
11532;DHT22;5822;51.000;5.874;2023-04-24T11:35:20;12.00;99.90
11532;DHT22;5822;51.000;5.874;2023-04-24T11:37:54;11.90;99.90
11532;DHT22;5822;51.000;5.874;2023-04-24T11:40:21;12.00;99.90
11532;DHT22;5822;51.000;5.874;2023-04-24T11:42:51;12.00;99.90
11532;DHT22;5822;51.000;5.874;2023-04-24T11:45:26;12.00;99.90
11532;DHT22;5822;51.000;5.874;2023-04-24T11:47:52;12.00;99.90
11532;DHT22;5822;51.000;5.874;2023-04-24T11:50:22;12.10;99.90
11532;DHT22;5822;51.000;5.874;2023-04-24T11:52:49;12.10;99.90
11532;DHT22;5822;51.000;5.874;2023-04-24T11:57:45;12.10;99.90
11532;DHT22;5822;51.000;5.874;2023-04-24T12:02:44;12.00;99.90
11532;DHT22;5822;51.000;5.874;2023-04-24T12:05:19;12.10;99.90
11532;DHT22;5822;51.000;5.874;2023-04-24T12:07:48;12.20;99.90
11532;DHT22;5822;51.000;5.874;2023-04-24T12:10:14;12.20;99.90
11532;DHT22;5822;51.000;5.874;2023-04-24T12:12:40;12.30;99.90
11532;DHT22;5822;51.000;5.874;2023-04-24T12:15:09;12.30;99.90
11532;DHT22;5822;51.000;5.874;2023-04-24T12:17:35;12.30;99.90
11532;DHT22;5822;51.000;5.874;2023-04-24T12:20:06;12.30;99.90
11532;DHT22;5822;51.000;5.874;2023-04-24T12:25:17;12.40;99.90
11532;DHT22;5822;51.000;5.874;2023-04-24T12:27:51;12.60;99.90
11532;DHT22;5822;51.000;5.874;2023-04-24T12:30:17;12.50;99.90
11532;DHT22;5822;51.000;5.874;2023-04-24T12:32:46;12.60;99.90
11532;DHT22;5822;51.000;5.874;2023-04-24T12:35:12;12.60;99.90
11532;DHT22;5822;51.000;5.874;2023-04-24T12:37:37;12.50;99.90
11532;DHT22;5822;51.000;5.874;2023-04-24T12:40:11;12.50;99.90
11532;DHT22;5822;51.000;5.874;2023-04-24T12:42:45;12.50;99.90
11532;DHT22;5822;51.000;5.874;2023-04-24T12:45:11;12.50;99.90
11532;DHT22;5822;51.000;5.874;2023-04-24T12:47:41;12.50;99.90
11532;DHT22;5822;51.000;5.874;2023-04-24T12:50:08;12.40;99.90
11532;DHT22;5822;51.000;5.874;2023-04-24T12:52:35;12.40;99.90
11532;DHT22;5822;51.000;5.874;2023-04-24T12:55:01;12.40;99.90
11532;DHT22;5822;51.000;5.874;2023-04-24T12:57:28;12.40;99.90
11532;DHT22;5822;51.000;5.874;2023-04-24T12:59:55;12.40;99.90
11532;DHT22;5822;51.000;5.874;2023-04-24T13:02:22;12.30;99.90
11532;DHT22;5822;51.000;5.874;2023-04-24T13:04:48;12.30;99.90
11532;DHT22;5822;51.000;5.874;2023-04-24T13:07:14;12.30;99.90
11532;DHT22;5822;51.000;5.874;2023-04-24T13:09:41;12.40;99.90
11532;DHT22;5822;51.000;5.874;2023-04-24T13:12:08;12.30;99.90
11532;DHT22;5822;51.000;5.874;2023-04-24T13:14:35;12.30;99.90
11532;DHT22;5822;51.000;5.874;2023-04-24T13:17:00;12.40;99.90
11532;DHT22;5822;51.000;5.874;2023-04-24T13:19:27;12.40;99.90
11532;DHT22;5822;51.000;5.874;2023-04-24T13:21:54;12.60;99.90
11532;DHT22;5822;51.000;5.874;2023-04-24T13:24:21;12.60;99.90
11532;DHT22;5822;51.000;5.874;2023-04-24T13:26:50;12.70;99.90
11532;DHT22;5822;51.000;5.874;2023-04-24T13:29:16;12.80;99.90
11532;DHT22;5822;51.000;5.874;2023-04-24T13:31:42;12.80;99.90
11532;DHT22;5822;51.000;5.874;2023-04-24T13:34:08;12.70;99.90
11532;DHT22;5822;51.000;5.874;2023-04-24T13:36:33;12.70;99.90
11532;DHT22;5822;51.000;5.874;2023-04-24T13:38:59;12.70;99.90
11532;DHT22;5822;51.000;5.874;2023-04-24T13:41:25;12.50;99.90
11532;DHT22;5822;51.000;5.874;2023-04-24T13:43:50;12.50;99.90
11532;DHT22;5822;51.000;5.874;2023-04-24T13:46:16;12.50;99.90
11532;DHT22;5822;51.000;5.874;2023-04-24T13:48:42;12.60;99.90
11532;DHT22;5822;51.000;5.874;2023-04-24T13:51:08;12.70;99.90
11532;DHT22;5822;51.000;5.874;2023-04-24T13:53:33;12.70;99.90
11532;DHT22;5822;51.000;5.874;2023-04-24T13:56:03;12.70;99.90
11532;DHT22;5822;51.000;5.874;2023-04-24T13:58:29;12.70;99.90
11532;DHT22;5822;51.000;5.874;2023-04-24T14:00:55;12.70;99.90
11532;DHT22;5822;51.000;5.874;2023-04-24T14:03:23;12.70;99.90
11532;DHT22;5822;51.000;5.874;2023-04-24T14:05:49;12.80;99.90
11532;DHT22;5822;51.000;5.874;2023-04-24T14:08:15;12.90;99.90
11532;DHT22;5822;51.000;5.874;2023-04-24T14:10:42;13.00;99.90
11532;DHT22;5822;51.000;5.874;2023-04-24T14:13:08;13.20;99.90
11532;DHT22;5822;51.000;5.874;2023-04-24T14:15:35;13.40;99.90
11532;DHT22;5822;51.000;5.874;2023-04-24T14:18:01;13.50;99.90
11532;DHT22;5822;51.000;5.874;2023-04-24T14:20:26;13.60;99.90
11532;DHT22;5822;51.000;5.874;2023-04-24T14:22:52;13.80;99.90
11532;DHT22;5822;51.000;5.874;2023-04-24T14:25:18;13.80;99.90
11532;DHT22;5822;51.000;5.874;2023-04-24T14:27:44;13.90;99.90
11532;DHT22;5822;51.000;5.874;2023-04-24T14:30:11;13.80;99.90
11532;DHT22;5822;51.000;5.874;2023-04-24T14:32:38;13.80;99.90
11532;DHT22;5822;51.000;5.874;2023-04-24T14:35:05;13.80;99.90
11532;DHT22;5822;51.000;5.874;2023-04-24T14:37:32;13.80;99.90
11532;DHT22;5822;51.000;5.874;2023-04-24T14:39:57;13.80;99.90
11532;DHT22;5822;51.000;5.874;2023-04-24T14:42:23;13.80;99.90
11532;DHT22;5822;51.000;5.874;2023-04-24T14:44:49;13.60;99.90
11532;DHT22;5822;51.000;5.874;2023-04-24T14:47:16;13.60;99.90
11532;DHT22;5822;51.000;5.874;2023-04-24T14:49:43;13.60;99.90
11532;DHT22;5822;51.000;5.874;2023-04-24T14:52:09;13.70;99.90
11532;DHT22;5822;51.000;5.874;2023-04-24T14:54:35;13.70;99.90
11532;DHT22;5822;51.000;5.874;2023-04-24T14:57:01;13.80;99.90
11532;DHT22;5822;51.000;5.874;2023-04-24T14:59:27;13.90;99.90
11532;DHT22;5822;51.000;5.874;2023-04-24T15:01:53;14.10;99.90
11532;DHT22;5822;51.000;5.874;2023-04-24T15:04:28;14.20;99.90
11532;DHT22;5822;51.000;5.874;2023-04-24T15:06:55;14.40;99.90
11532;DHT22;5822;51.000;5.874;2023-04-24T15:09:24;14.30;99.90
11532;DHT22;5822;51.000;5.874;2023-04-24T15:11:50;14.20;99.90
11532;DHT22;5822;51.000;5.874;2023-04-24T15:14:17;14.10;99.90
11532;DHT22;5822;51.000;5.874;2023-04-24T15:16:43;14.00;99.90
11532;DHT22;5822;51.000;5.874;2023-04-24T15:19:08;13.90;99.90
11532;DHT22;5822;51.000;5.874;2023-04-24T15:21:35;13.90;99.90
11532;DHT22;5822;51.000;5.874;2023-04-24T15:24:01;13.90;99.90
11532;DHT22;5822;51.000;5.874;2023-04-24T15:26:27;13.90;99.90
11532;DHT22;5822;51.000;5.874;2023-04-24T15:28:53;13.80;99.90
11532;DHT22;5822;51.000;5.874;2023-04-24T15:31:18;13.80;99.90
11532;DHT22;5822;51.000;5.874;2023-04-24T15:33:44;13.80;99.90
11532;DHT22;5822;51.000;5.874;2023-04-24T15:36:10;13.90;99.90
11532;DHT22;5822;51.000;5.874;2023-04-24T15:38:37;13.90;99.90
11532;DHT22;5822;51.000;5.874;2023-04-24T15:41:03;13.90;99.90
11532;DHT22;5822;51.000;5.874;2023-04-24T15:43:28;13.80;99.90
11532;DHT22;5822;51.000;5.874;2023-04-24T15:46:00;13.80;99.90
11532;DHT22;5822;51.000;5.874;2023-04-24T15:48:29;13.80;99.90
11532;DHT22;5822;51.000;5.874;2023-04-24T15:50:54;13.80;99.90
11532;DHT22;5822;51.000;5.874;2023-04-24T15:53:20;13.90;99.90
11532;DHT22;5822;51.000;5.874;2023-04-24T15:55:50;13.90;99.90
11532;DHT22;5822;51.000;5.874;2023-04-24T15:58:17;13.90;99.90